createdAt,value
2018-09-22T00:00:07.371Z,1008.67
2018-09-22T00:01:07.356Z,1008.75
2018-09-22T00:02:07.344Z,1008.73
2018-09-22T00:03:07.319Z,1008.76
2018-09-22T00:04:07.305Z,1008.73
2018-09-22T00:05:07.287Z,1008.78
2018-09-22T00:06:07.270Z,1008.74
2018-09-22T00:07:07.249Z,1008.82
2018-09-22T00:08:07.232Z,1008.77
2018-09-22T00:09:07.219Z,1008.80
2018-09-22T00:10:07.199Z,1008.76
2018-09-22T00:11:07.183Z,1008.89
2018-09-22T00:12:07.164Z,1008.85
2018-09-22T00:13:07.156Z,1008.92
2018-09-22T00:14:07.129Z,1008.96
2018-09-22T00:15:07.112Z,1008.98
2018-09-22T00:16:07.100Z,1008.95
2018-09-22T00:17:07.081Z,1008.88
2018-09-22T00:18:07.061Z,1008.93
2018-09-22T00:19:07.043Z,1008.91
2018-09-22T00:20:07.026Z,1008.91
2018-09-22T00:21:07.013Z,1009.05
2018-09-22T00:22:06.994Z,1008.96
2018-09-22T00:23:06.977Z,1008.86
2018-09-22T00:24:06.959Z,1009.02
2018-09-22T00:25:06.945Z,1008.98
2018-09-22T00:26:06.925Z,1008.93
2018-09-22T00:27:06.962Z,1008.92
2018-09-22T00:28:06.893Z,1008.97
2018-09-22T00:29:06.878Z,1009.03
2018-09-22T00:30:06.863Z,1009.06
2018-09-22T00:31:06.839Z,1009.03
2018-09-22T00:32:06.822Z,1009.04
2018-09-22T00:33:06.804Z,1009.07
2018-09-22T00:34:06.790Z,1009.07
2018-09-22T00:35:06.769Z,1009.10
2018-09-22T00:36:06.750Z,1009.11
2018-09-22T00:37:06.737Z,1009.11
2018-09-22T00:38:06.716Z,1009.11
2018-09-22T00:39:06.700Z,1009.11
2018-09-22T00:40:06.681Z,1009.15
2018-09-22T00:41:06.665Z,1009.20
2018-09-22T00:42:06.647Z,1009.14
2018-09-22T00:43:06.630Z,1009.19
2018-09-22T00:44:06.614Z,1009.21
2018-09-22T00:45:06.595Z,1009.18
2018-09-22T00:46:06.579Z,1009.20
2018-09-22T00:47:06.560Z,1009.20
2018-09-22T00:48:06.550Z,1009.15
2018-09-22T00:49:06.526Z,1009.25
2018-09-22T00:50:06.512Z,1009.27
2018-09-22T00:51:06.496Z,1009.22
2018-09-22T00:52:06.478Z,1009.24
2018-09-22T00:53:06.460Z,1009.17
2018-09-22T00:54:06.442Z,1009.30
2018-09-22T00:55:06.424Z,1009.25
2018-09-22T00:56:06.407Z,1009.30
2018-09-22T00:57:06.391Z,1009.26
2018-09-22T00:58:06.374Z,1009.33
2018-09-22T00:59:06.356Z,1009.40
2018-09-22T01:00:06.346Z,1009.38
2018-09-22T01:01:06.320Z,1009.45
2018-09-22T01:02:06.325Z,1009.42
2018-09-22T01:03:06.293Z,1009.46
2018-09-22T01:04:06.266Z,1009.41
2018-09-22T01:05:06.259Z,1009.41
2018-09-22T01:06:06.236Z,1009.40
2018-09-22T01:07:06.217Z,1009.43
2018-09-22T01:08:06.203Z,1009.47
2018-09-22T01:09:06.179Z,1009.46
2018-09-22T01:10:06.164Z,1009.45
2018-09-22T01:11:06.148Z,1009.50
2018-09-22T01:12:06.125Z,1009.40
2018-09-22T01:13:06.114Z,1009.46
2018-09-22T01:14:06.096Z,1009.44
2018-09-22T01:15:06.076Z,1009.46
2018-09-22T01:16:06.059Z,1009.50
2018-09-22T01:17:06.048Z,1009.45
2018-09-22T01:18:06.035Z,1009.51
2018-09-22T01:19:06.007Z,1009.50
2018-09-22T01:20:05.992Z,1009.54
2018-09-22T01:21:05.970Z,1009.58
2018-09-22T01:22:05.956Z,1009.62
2018-09-22T01:23:05.936Z,1009.69
2018-09-22T01:24:05.925Z,1009.67
2018-09-22T01:25:05.905Z,1009.63
2018-09-22T01:26:05.897Z,1009.62
2018-09-22T01:27:05.869Z,1009.62
2018-09-22T01:28:05.851Z,1009.60
2018-09-22T01:29:05.837Z,1009.67
2018-09-22T01:30:05.817Z,1009.67
2018-09-22T01:31:05.800Z,1009.72
2018-09-22T01:32:05.783Z,1009.76
2018-09-22T01:33:05.765Z,1009.75
2018-09-22T01:34:05.749Z,1009.78
2018-09-22T01:35:05.734Z,1009.80
2018-09-22T01:36:05.720Z,1009.84
2018-09-22T01:37:05.698Z,1009.88
2018-09-22T01:38:05.681Z,1009.91
2018-09-22T01:39:05.663Z,1009.90
2018-09-22T01:40:05.642Z,1009.89
2018-09-22T01:41:05.629Z,1009.92
2018-09-22T01:42:05.615Z,1009.93
2018-09-22T01:43:05.591Z,1009.91
2018-09-22T01:44:05.573Z,1009.88
2018-09-22T01:45:05.560Z,1009.91
2018-09-22T01:46:05.539Z,1009.88
2018-09-22T01:47:05.522Z,1009.92
2018-09-22T01:48:05.509Z,1009.91
2018-09-22T01:49:05.490Z,1009.91
2018-09-22T01:50:05.469Z,1009.93
2018-09-22T01:51:05.457Z,1009.94
2018-09-22T01:52:05.438Z,1009.92
2018-09-22T01:53:05.417Z,1009.95
2018-09-22T01:54:05.405Z,1009.93
2018-09-22T01:55:05.385Z,1010.02
2018-09-22T01:56:05.366Z,1010.00
2018-09-22T01:57:05.350Z,1009.97
2018-09-22T01:58:05.334Z,1010.05
2018-09-22T01:59:05.317Z,1010.05
2018-09-22T02:00:05.299Z,1010.04
2018-09-22T02:01:05.281Z,1010.08
2018-09-22T02:02:05.263Z,1010.08
2018-09-22T02:03:05.246Z,1010.09
2018-09-22T02:04:05.230Z,1010.05
2018-09-22T02:05:05.215Z,1010.07
2018-09-22T02:06:05.196Z,1010.12
2018-09-22T02:07:05.176Z,1010.10
2018-09-22T02:08:05.161Z,1010.14
2018-09-22T02:09:05.148Z,1010.15
2018-09-22T02:10:05.125Z,1010.11
2018-09-22T02:11:05.109Z,1010.12
2018-09-22T02:12:05.089Z,1010.11
2018-09-22T02:13:05.086Z,1010.10
2018-09-22T02:14:05.058Z,1010.08
2018-09-22T02:15:05.044Z,1010.20
2018-09-22T02:16:05.024Z,1010.21
2018-09-22T02:17:05.003Z,1010.24
2018-09-22T02:18:04.988Z,1010.28
2018-09-22T02:19:04.969Z,1010.29
2018-09-22T02:20:04.952Z,1010.27
2018-09-22T02:21:04.933Z,1010.21
2018-09-22T02:22:04.917Z,1010.27
2018-09-22T02:23:04.899Z,1010.20
2018-09-22T02:24:04.882Z,1010.18
2018-09-22T02:25:04.866Z,1010.21
2018-09-22T02:26:04.844Z,1010.22
2018-09-22T02:27:04.830Z,1010.19
2018-09-22T02:28:04.812Z,1010.24
2018-09-22T02:29:04.792Z,1010.24
2018-09-22T02:30:04.782Z,1010.28
2018-09-22T02:31:04.759Z,1010.30
2018-09-22T02:32:04.748Z,1010.24
2018-09-22T02:33:04.724Z,1010.30
2018-09-22T02:34:04.711Z,1010.36
2018-09-22T02:35:04.689Z,1010.37
2018-09-22T02:36:04.677Z,1010.30
2018-09-22T02:37:04.654Z,1010.32
2018-09-22T02:38:04.638Z,1010.35
2018-09-22T02:39:04.618Z,1010.28
2018-09-22T02:40:04.603Z,1010.28
2018-09-22T02:41:04.584Z,1010.32
2018-09-22T02:42:04.573Z,1010.42
2018-09-22T02:43:04.550Z,1010.37
2018-09-22T02:44:04.532Z,1010.40
2018-09-22T02:45:04.515Z,1010.43
2018-09-22T02:46:04.498Z,1010.42
2018-09-22T02:47:04.483Z,1010.41
2018-09-22T02:48:04.463Z,1010.41
2018-09-22T02:49:04.444Z,1010.48
2018-09-22T02:50:04.429Z,1010.44
2018-09-22T02:51:04.410Z,1010.40
2018-09-22T02:52:04.392Z,1010.48
2018-09-22T02:53:04.383Z,1010.53
2018-09-22T02:54:04.361Z,1010.59
2018-09-22T02:55:04.343Z,1010.57
2018-09-22T02:56:04.325Z,1010.61
2018-09-22T02:57:04.308Z,1010.59
2018-09-22T02:58:04.288Z,1010.60
2018-09-22T02:59:04.269Z,1010.64
2018-09-22T03:00:04.260Z,1010.65
2018-09-22T03:01:04.236Z,1010.64
2018-09-22T03:02:04.223Z,1010.61
2018-09-22T03:03:04.202Z,1010.67
2018-09-22T03:04:04.183Z,1010.61
2018-09-22T03:05:04.167Z,1010.60
2018-09-22T03:06:04.151Z,1010.60
2018-09-22T03:07:04.134Z,1010.62
2018-09-22T03:08:04.114Z,1010.64
2018-09-22T03:09:04.097Z,1010.58
2018-09-22T03:10:04.118Z,1010.58
2018-09-22T03:11:04.062Z,1010.57
2018-09-22T03:12:04.044Z,1010.58
2018-09-22T03:13:04.024Z,1010.60
2018-09-22T03:14:04.008Z,1010.63
2018-09-22T03:15:03.991Z,1010.64
2018-09-22T03:16:03.976Z,1010.64
2018-09-22T03:17:03.955Z,1010.69
2018-09-22T03:18:03.938Z,1010.66
2018-09-22T03:19:03.927Z,1010.69
2018-09-22T03:20:03.908Z,1010.73
2018-09-22T03:21:03.885Z,1010.75
2018-09-22T03:22:03.867Z,1010.69
2018-09-22T03:23:03.854Z,1010.75
2018-09-22T03:24:03.837Z,1010.75
2018-09-22T03:25:03.815Z,1010.70
2018-09-22T03:26:03.797Z,1010.75
2018-09-22T03:27:03.780Z,1010.78
2018-09-22T03:28:03.766Z,1010.80
2018-09-22T03:29:03.745Z,1010.81
2018-09-22T03:30:03.729Z,1010.79
2018-09-22T03:31:03.708Z,1010.86
2018-09-22T03:32:03.695Z,1010.86
2018-09-22T03:33:03.674Z,1010.83
2018-09-22T03:34:03.656Z,1010.83
2018-09-22T03:35:03.640Z,1010.81
2018-09-22T03:36:03.622Z,1010.84
2018-09-22T03:37:03.604Z,1010.90
2018-09-22T03:38:03.585Z,1010.88
2018-09-22T03:39:03.574Z,1010.87
2018-09-22T03:40:03.553Z,1010.84
2018-09-22T03:41:03.536Z,1010.86
2018-09-22T03:42:03.518Z,1010.93
2018-09-22T03:43:03.500Z,1010.94
2018-09-22T03:44:03.482Z,1010.91
2018-09-22T03:45:03.465Z,1010.94
2018-09-22T03:46:03.447Z,1010.90
2018-09-22T03:47:03.429Z,1010.97
2018-09-22T03:48:03.413Z,1010.96
2018-09-22T03:49:03.394Z,1010.95
2018-09-22T03:50:03.384Z,1010.93
2018-09-22T03:51:03.362Z,1011.01
2018-09-22T03:52:03.345Z,1011.03
2018-09-22T03:53:03.324Z,1011.05
2018-09-22T03:54:03.305Z,1011.03
2018-09-22T03:55:03.292Z,1010.97
2018-09-22T03:56:03.288Z,1010.98
2018-09-22T03:57:03.253Z,1010.96
2018-09-22T03:58:03.247Z,1010.99
2018-09-22T03:59:03.219Z,1011.01
2018-09-22T04:00:03.206Z,1011.01
2018-09-22T04:01:03.185Z,1011.02
2018-09-22T04:02:03.175Z,1011.00
2018-09-22T04:03:03.155Z,1011.01
2018-09-22T04:04:03.137Z,1010.97
2018-09-22T04:05:03.114Z,1010.96
2018-09-22T04:06:03.097Z,1011.00
2018-09-22T04:07:03.078Z,1010.96
2018-09-22T04:08:03.062Z,1010.94
2018-09-22T04:09:03.042Z,1011.01
2018-09-22T04:10:03.027Z,1011.02
2018-09-22T04:11:03.011Z,1011.05
2018-09-22T04:12:02.995Z,1011.03
2018-09-22T04:13:02.975Z,1011.02
2018-09-22T04:14:02.955Z,1011.03
2018-09-22T04:15:02.950Z,1011.03
2018-09-22T04:16:02.925Z,1011.03
2018-09-22T04:17:02.904Z,1011.06
2018-09-22T04:18:02.886Z,1011.10
2018-09-22T04:19:02.873Z,1011.09
2018-09-22T04:20:02.861Z,1011.06
2018-09-22T04:21:02.857Z,1011.07
2018-09-22T04:22:02.820Z,1011.11
2018-09-22T04:23:02.800Z,1011.08
2018-09-22T04:24:02.782Z,1011.14
2018-09-22T04:25:02.765Z,1011.13
2018-09-22T04:26:02.748Z,1011.16
2018-09-22T04:27:02.747Z,1011.19
2018-09-22T04:28:02.714Z,1011.24
2018-09-22T04:29:02.693Z,1011.21
2018-09-22T04:30:02.679Z,1011.17
2018-09-22T04:31:02.661Z,1011.21
2018-09-22T04:32:02.646Z,1011.21
2018-09-22T04:33:02.635Z,1011.20
2018-09-22T04:34:02.608Z,1011.18
2018-09-22T04:35:02.605Z,1011.20
2018-09-22T04:36:02.588Z,1011.23
2018-09-22T04:37:02.558Z,1011.28
2018-09-22T04:38:02.541Z,1011.29
2018-09-22T04:39:02.522Z,1011.27
2018-09-22T04:40:02.503Z,1011.31
2018-09-22T04:41:02.527Z,1011.31
2018-09-22T04:42:02.469Z,1011.32
2018-09-22T04:43:02.450Z,1011.36
2018-09-22T04:44:02.438Z,1011.38
2018-09-22T04:45:02.415Z,1011.32
2018-09-22T04:46:02.404Z,1011.33
2018-09-22T04:47:02.382Z,1011.31
2018-09-22T04:48:02.372Z,1011.37
2018-09-22T04:49:02.345Z,1011.40
2018-09-22T04:50:02.332Z,1011.40
2018-09-22T04:51:02.317Z,1011.38
2018-09-22T04:52:02.298Z,1011.34
2018-09-22T04:53:02.276Z,1011.40
2018-09-22T04:54:02.263Z,1011.40
2018-09-22T04:55:02.245Z,1011.46
2018-09-22T04:56:02.225Z,1011.46
2018-09-22T04:57:02.213Z,1011.42
2018-09-22T04:58:02.193Z,1011.39
2018-09-22T04:59:02.172Z,1011.42
2018-09-22T05:00:02.157Z,1011.43
2018-09-22T05:01:02.137Z,1011.46
2018-09-22T05:02:02.118Z,1011.48
2018-09-22T05:03:02.123Z,1011.48
2018-09-22T05:04:02.085Z,1011.49
2018-09-22T05:05:02.068Z,1011.57
2018-09-22T05:06:02.053Z,1011.57
2018-09-22T05:07:02.035Z,1011.64
2018-09-22T05:08:02.015Z,1011.61
2018-09-22T05:09:02.012Z,1011.64
2018-09-22T05:10:01.987Z,1011.64
2018-09-22T05:11:01.964Z,1011.59
2018-09-22T05:12:01.948Z,1011.57
2018-09-22T05:13:01.927Z,1011.64
2018-09-22T05:14:01.912Z,1011.59
2018-09-22T05:15:01.892Z,1011.62
2018-09-22T05:16:01.875Z,1011.67
2018-09-22T05:17:01.868Z,1011.73
2018-09-22T05:18:01.894Z,1011.73
2018-09-22T05:19:01.823Z,1011.68
2018-09-22T05:20:01.806Z,1011.70
2018-09-22T05:21:01.786Z,1011.78
2018-09-22T05:22:01.771Z,1011.73
2018-09-22T05:23:01.758Z,1011.79
2018-09-22T05:24:01.743Z,1011.81
2018-09-22T05:25:01.731Z,1011.79
2018-09-22T05:26:01.704Z,1011.79
2018-09-22T05:27:01.685Z,1011.86
2018-09-22T05:28:01.671Z,1011.86
2018-09-22T05:29:01.648Z,1011.90
2018-09-22T05:30:01.634Z,1011.92
2018-09-22T05:31:01.617Z,1011.86
2018-09-22T05:32:01.600Z,1011.87
2018-09-22T05:33:01.580Z,1011.93
2018-09-22T05:34:01.657Z,1011.90
2018-09-22T05:35:01.548Z,1011.87
2018-09-22T05:36:01.533Z,1011.90
2018-09-22T05:37:01.511Z,1011.85
2018-09-22T05:38:01.494Z,1011.90
2018-09-22T05:39:01.477Z,1011.91
2018-09-22T05:40:01.460Z,1011.95
2018-09-22T05:41:01.442Z,1011.92
2018-09-22T05:42:01.429Z,1011.99
2018-09-22T05:43:01.410Z,1012.08
2018-09-22T05:44:01.390Z,1012.08
2018-09-22T05:45:01.373Z,1012.07
2018-09-22T05:46:01.371Z,1012.08
2018-09-22T05:47:01.337Z,1012.11
2018-09-22T05:48:01.318Z,1012.16
2018-09-22T05:49:01.300Z,1012.11
2018-09-22T05:50:01.291Z,1012.07
2018-09-22T05:51:01.266Z,1012.07
2018-09-22T05:52:01.256Z,1012.14
2018-09-22T05:53:01.231Z,1012.15
2018-09-22T05:54:01.213Z,1012.15
2018-09-22T05:55:01.197Z,1012.19
2018-09-22T05:56:01.178Z,1012.20
2018-09-22T05:57:01.162Z,1012.22
2018-09-22T05:58:01.155Z,1012.16
2018-09-22T05:59:01.133Z,1012.17
2018-09-22T06:00:01.115Z,1012.12
2018-09-22T06:01:01.099Z,1012.08
2018-09-22T06:02:01.077Z,1012.09
2018-09-22T06:03:01.060Z,1012.12
2018-09-22T06:04:01.117Z,1012.15
2018-09-22T06:05:01.025Z,1012.15
2018-09-22T06:06:01.022Z,1012.11
2018-09-22T06:07:00.993Z,1012.17
2018-09-22T06:08:00.973Z,1012.15
2018-09-22T06:09:00.957Z,1012.13
2018-09-22T06:10:00.946Z,1012.18
2018-09-22T06:11:00.923Z,1012.21
2018-09-22T06:12:00.904Z,1012.18
2018-09-22T06:13:00.886Z,1012.20
2018-09-22T06:14:00.869Z,1012.18
2018-09-22T06:15:00.852Z,1012.22
2018-09-22T06:16:00.837Z,1012.19
2018-09-22T06:17:00.821Z,1012.22
2018-09-22T06:18:00.801Z,1012.17
2018-09-22T06:19:00.785Z,1012.15
2018-09-22T06:20:00.767Z,1012.16
2018-09-22T06:21:00.751Z,1012.20
2018-09-22T06:22:00.738Z,1012.22
2018-09-22T06:23:00.725Z,1012.26
2018-09-22T06:24:00.703Z,1012.26
2018-09-22T06:25:00.680Z,1012.24
2018-09-22T06:26:00.676Z,1012.21
2018-09-22T06:27:00.653Z,1012.23
2018-09-22T06:28:00.635Z,1012.19
2018-09-22T06:29:00.620Z,1012.23
2018-09-22T06:30:00.600Z,1012.24
2018-09-22T06:31:00.583Z,1012.24
2018-09-22T06:32:00.567Z,1012.23
2018-09-22T06:33:00.550Z,1012.25
2018-09-22T06:34:00.531Z,1012.23
2018-09-22T06:35:00.522Z,1012.21
2018-09-22T06:36:00.505Z,1012.22
2018-09-22T06:37:00.485Z,1012.22
2018-09-22T06:38:00.469Z,1012.20
2018-09-22T06:39:00.461Z,1012.22
2018-09-22T06:40:00.433Z,1012.27
2018-09-22T06:41:00.421Z,1012.28
2018-09-22T06:42:00.403Z,1012.34
2018-09-22T06:43:00.383Z,1012.37
2018-09-22T06:44:00.369Z,1012.37
2018-09-22T06:45:00.352Z,1012.32
2018-09-22T06:46:00.334Z,1012.28
2018-09-22T06:47:00.317Z,1012.24
2018-09-22T06:48:00.307Z,1012.23
2018-09-22T06:49:00.294Z,1012.26
2018-09-22T06:50:00.282Z,1012.31
2018-09-22T06:51:00.254Z,1012.30
2018-09-22T06:52:00.238Z,1012.31
2018-09-22T06:53:00.224Z,1012.26
2018-09-22T06:54:00.206Z,1012.25
2018-09-22T06:55:00.237Z,1012.23
2018-09-22T06:56:00.172Z,1012.22
2018-09-22T06:57:00.159Z,1012.22
2018-09-22T06:58:00.139Z,1012.26
2018-09-22T06:59:00.127Z,1012.24
2018-09-22T07:00:00.110Z,1012.30
2018-09-22T07:01:00.095Z,1012.30
2018-09-22T07:02:00.080Z,1012.35
2018-09-22T07:03:00.059Z,1012.31
2018-09-22T07:04:00.044Z,1012.31
2018-09-22T07:05:00.031Z,1012.36
2018-09-22T07:06:00.018Z,1012.35
2018-09-22T07:06:59.997Z,1012.42
2018-09-22T07:07:59.978Z,1012.40
2018-09-22T07:08:59.967Z,1012.48
2018-09-22T07:09:59.956Z,1012.52
2018-09-22T07:10:59.931Z,1012.53
2018-09-22T07:11:59.917Z,1012.60
2018-09-22T07:12:59.900Z,1012.54
2018-09-22T07:13:59.889Z,1012.56
2018-09-22T07:14:59.870Z,1012.57
2018-09-22T07:15:59.859Z,1012.56
2018-09-22T07:16:59.839Z,1012.59
2018-09-22T07:17:59.824Z,1012.61
2018-09-22T07:18:59.808Z,1012.60
2018-09-22T07:19:59.794Z,1012.62
2018-09-22T07:20:59.785Z,1012.62
2018-09-22T07:21:59.771Z,1012.63
2018-09-22T07:22:59.750Z,1012.63
2018-09-22T07:23:59.739Z,1012.65
2018-09-22T07:24:59.729Z,1012.73
2018-09-22T07:25:59.711Z,1012.72
2018-09-22T07:26:59.699Z,1012.77
2018-09-22T07:27:59.693Z,1012.83
2018-09-22T07:28:59.672Z,1012.80
2018-09-22T07:29:59.654Z,1012.82
2018-09-22T07:30:59.671Z,1012.75
2018-09-22T07:31:59.635Z,1012.76
2018-09-22T07:32:59.619Z,1012.65
2018-09-22T07:33:59.600Z,1012.71
2018-09-22T07:34:59.588Z,1012.77
2018-09-22T07:35:59.583Z,1012.74
2018-09-22T07:36:59.563Z,1012.76
2018-09-22T07:37:59.550Z,1012.70
2018-09-22T07:38:59.536Z,1012.82
2018-09-22T07:39:59.522Z,1012.81
2018-09-22T07:40:59.512Z,1012.76
2018-09-22T07:41:59.501Z,1012.78
2018-09-22T07:42:59.489Z,1012.86
2018-09-22T07:43:59.471Z,1012.92
2018-09-22T07:44:59.464Z,1013.02
2018-09-22T07:45:59.445Z,1012.99
2018-09-22T07:46:59.429Z,1012.94
2018-09-22T07:47:59.419Z,1012.99
2018-09-22T07:48:59.409Z,1012.98
2018-09-22T07:49:59.392Z,1013.02
2018-09-22T07:50:59.380Z,1013.04
2018-09-22T07:51:59.368Z,1013.09
2018-09-22T07:52:59.357Z,1013.20
2018-09-22T07:53:59.342Z,1013.16
2018-09-22T07:54:59.337Z,1013.15
2018-09-22T07:55:59.371Z,1013.29
2018-09-22T07:56:59.328Z,1013.27
2018-09-22T07:57:59.303Z,1013.24
2018-09-22T07:58:59.303Z,1013.18
2018-09-22T07:59:59.283Z,1013.00
2018-09-22T08:00:59.274Z,1013.17
2018-09-22T08:01:59.265Z,1012.99
2018-09-22T08:02:59.249Z,1013.21
2018-09-22T08:03:59.238Z,1013.01
2018-09-22T08:04:59.236Z,1012.95
2018-09-22T08:05:59.228Z,1012.83
2018-09-22T08:06:59.207Z,1012.85
2018-09-22T08:07:59.200Z,1012.97
2018-09-22T08:08:59.184Z,1013.19
2018-09-22T08:09:59.181Z,1013.02
2018-09-22T08:10:59.170Z,1013.26
2018-09-22T08:11:59.156Z,1013.15
2018-09-22T08:12:59.150Z,1013.20
2018-09-22T08:13:59.137Z,1013.30
2018-09-22T08:14:59.134Z,1013.48
2018-09-22T08:15:59.126Z,1013.45
2018-09-22T08:16:59.105Z,1013.44
2018-09-22T08:17:59.100Z,1013.28
2018-09-22T08:18:59.102Z,1013.30
2018-09-22T08:19:59.078Z,1013.38
2018-09-22T08:20:59.073Z,1013.26
2018-09-22T08:21:59.068Z,1013.06
2018-09-22T08:22:59.056Z,1013.19
2018-09-22T08:23:59.049Z,1013.27
2018-09-22T08:24:59.038Z,1013.04
2018-09-22T08:25:59.029Z,1013.28
2018-09-22T08:26:59.018Z,1013.32
2018-09-22T08:27:59.015Z,1013.39
2018-09-22T08:28:59.002Z,1013.51
2018-09-22T08:29:58.988Z,1013.44
2018-09-22T08:30:58.980Z,1013.32
2018-09-22T08:31:58.997Z,1013.38
2018-09-22T08:32:59.014Z,1013.52
2018-09-22T08:33:58.954Z,1013.53
2018-09-22T08:34:58.947Z,1013.50
2018-09-22T08:35:58.970Z,1013.55
2018-09-22T08:36:59.168Z,1013.55
2018-09-22T08:37:58.914Z,1013.50
2018-09-22T08:38:58.920Z,1013.54
2018-09-22T08:39:58.900Z,1013.61
2018-09-22T08:40:58.890Z,1013.71
2018-09-22T08:41:58.880Z,1013.91
2018-09-22T08:42:58.877Z,1013.95
2018-09-22T08:43:58.963Z,1013.89
2018-09-22T08:44:58.921Z,1013.97
2018-09-22T08:45:58.854Z,1014.06
2018-09-22T08:46:58.848Z,1014.04
2018-09-22T08:47:58.842Z,1014.11
2018-09-22T08:48:58.838Z,1014.16
2018-09-22T08:49:58.841Z,1014.07
2018-09-22T08:50:58.880Z,1014.04
2018-09-22T08:51:58.823Z,1014.20
2018-09-22T08:52:58.816Z,1014.13
2018-09-22T08:53:58.818Z,1013.42
2018-09-22T08:54:58.810Z,1013.48
2018-09-22T08:55:58.811Z,1013.62
2018-09-22T08:56:58.800Z,1013.74
2018-09-22T08:57:58.876Z,1013.99
2018-09-22T08:58:58.792Z,1013.70
2018-09-22T08:59:58.785Z,1013.86
2018-09-22T09:00:58.782Z,1013.51
2018-09-22T09:01:58.773Z,1013.35
2018-09-22T09:02:58.768Z,1013.73
2018-09-22T09:03:58.766Z,1013.77
2018-09-22T09:04:58.807Z,1013.76
2018-09-22T09:05:58.802Z,1013.49
2018-09-22T09:06:58.747Z,1013.39
2018-09-22T09:07:58.741Z,1013.41
2018-09-22T09:08:58.731Z,1013.50
2018-09-22T09:09:58.724Z,1013.43
2018-09-22T09:10:58.715Z,1013.37
2018-09-22T09:11:58.708Z,1013.41
2018-09-22T09:12:58.703Z,1013.37
2018-09-22T09:13:58.709Z,1013.34
2018-09-22T09:14:58.679Z,1013.30
2018-09-22T09:15:58.672Z,1013.24
2018-09-22T09:16:58.696Z,1013.27
2018-09-22T09:17:58.657Z,1013.25
2018-09-22T09:18:58.644Z,1013.16
2018-09-22T09:19:58.635Z,1013.17
2018-09-22T09:20:58.624Z,1013.21
2018-09-22T09:21:58.616Z,1013.26
2018-09-22T09:22:58.600Z,1013.27
2018-09-22T09:23:58.594Z,1013.30
2018-09-22T09:24:58.583Z,1013.25
2018-09-22T09:25:58.570Z,1013.19
2018-09-22T09:26:58.562Z,1013.09
2018-09-22T09:27:58.551Z,1013.14
2018-09-22T09:28:58.538Z,1013.17
2018-09-22T09:29:58.533Z,1013.15
2018-09-22T09:30:58.517Z,1013.27
2018-09-22T09:31:58.509Z,1013.29
2018-09-22T09:32:58.499Z,1013.25
2018-09-22T09:33:58.489Z,1013.32
2018-09-22T09:34:58.471Z,1013.32
2018-09-22T09:35:58.459Z,1013.21
2018-09-22T09:36:58.447Z,1013.20
2018-09-22T09:37:58.436Z,1013.15
2018-09-22T09:38:58.433Z,1013.05
2018-09-22T09:39:58.414Z,1013.06
2018-09-22T09:40:58.401Z,1013.11
2018-09-22T09:41:58.394Z,1013.15
2018-09-22T09:42:58.378Z,1013.05
2018-09-22T09:43:58.373Z,1013.08
2018-09-22T09:44:58.358Z,1013.04
2018-09-22T09:45:58.342Z,1012.95
2018-09-22T09:46:58.345Z,1012.90
2018-09-22T09:47:58.322Z,1012.91
2018-09-22T09:48:58.315Z,1012.90
2018-09-22T09:49:58.296Z,1012.86
2018-09-22T09:50:58.285Z,1012.80
2018-09-22T09:51:58.273Z,1012.80
2018-09-22T09:52:58.260Z,1012.82
2018-09-22T09:53:58.256Z,1012.75
2018-09-22T09:54:58.322Z,1012.75
2018-09-22T09:55:58.227Z,1012.71
2018-09-22T09:56:58.217Z,1012.71
2018-09-22T09:57:58.205Z,1012.69
2018-09-22T09:58:58.195Z,1012.62
2018-09-22T09:59:58.179Z,1012.64
2018-09-22T10:00:58.177Z,1012.70
2018-09-22T10:01:58.161Z,1012.66
2018-09-22T10:02:58.142Z,1012.67
2018-09-22T10:03:58.138Z,1012.67
2018-09-22T10:04:58.117Z,1012.64
2018-09-22T10:05:58.107Z,1012.63
2018-09-22T10:06:58.091Z,1012.67
2018-09-22T10:07:58.077Z,1012.68
2018-09-22T10:08:58.065Z,1012.71
2018-09-22T10:09:58.067Z,1012.58
2018-09-22T10:10:58.046Z,1012.73
2018-09-22T10:11:58.032Z,1012.80
2018-09-22T10:12:58.011Z,1012.68
2018-09-22T10:13:57.998Z,1012.70
2018-09-22T10:14:57.989Z,1012.70
2018-09-22T10:15:57.977Z,1012.67
2018-09-22T10:16:57.963Z,1012.68
2018-09-22T10:17:57.953Z,1012.73
2018-09-22T10:18:57.957Z,1012.69
2018-09-22T10:19:57.934Z,1012.66
2018-09-22T10:21:00.946Z,1012.64
2018-09-22T10:21:57.902Z,1012.62
2018-09-22T10:22:57.891Z,1012.61
2018-09-22T10:23:57.878Z,1012.57
2018-09-22T10:24:57.867Z,1012.57
2018-09-22T10:25:57.859Z,1012.53
2018-09-22T10:26:57.839Z,1012.55
2018-09-22T10:27:57.864Z,1012.64
2018-09-22T10:28:57.902Z,1012.58
2018-09-22T10:29:57.800Z,1012.74
2018-09-22T10:30:57.792Z,1012.66
2018-09-22T10:31:57.780Z,1012.74
2018-09-22T10:32:57.766Z,1012.72
2018-09-22T10:33:57.756Z,1012.76
2018-09-22T10:34:57.745Z,1012.69
2018-09-22T10:35:57.744Z,1012.79
2018-09-22T10:36:57.732Z,1012.64
2018-09-22T10:37:57.706Z,1012.74
2018-09-22T10:38:57.693Z,1012.82
2018-09-22T10:39:57.685Z,1012.58
2018-09-22T10:40:57.668Z,1012.69
2018-09-22T10:41:57.665Z,1012.64
2018-09-22T10:42:57.659Z,1012.54
2018-09-22T10:43:57.643Z,1012.59
2018-09-22T10:44:57.630Z,1012.58
2018-09-22T10:45:57.616Z,1012.56
2018-09-22T10:46:57.599Z,1012.53
2018-09-22T10:47:57.587Z,1012.49
2018-09-22T10:48:57.575Z,1012.48
2018-09-22T10:49:57.564Z,1012.41
2018-09-22T10:50:57.556Z,1012.45
2018-09-22T10:51:57.540Z,1012.42
2018-09-22T10:52:57.590Z,1012.35
2018-09-22T10:53:57.517Z,1012.38
2018-09-22T10:54:57.503Z,1012.42
2018-09-22T10:55:57.490Z,1012.40
2018-09-22T10:56:57.475Z,1012.45
2018-09-22T10:57:57.468Z,1012.44
2018-09-22T10:58:57.455Z,1012.34
2018-09-22T10:59:57.441Z,1012.39
2018-09-22T11:00:57.426Z,1012.40
2018-09-22T11:01:57.412Z,1012.36
2018-09-22T11:02:57.410Z,1012.40
2018-09-22T11:03:57.390Z,1012.35
2018-09-22T11:04:57.375Z,1012.33
2018-09-22T11:05:57.366Z,1012.37
2018-09-22T11:06:57.360Z,1012.32
2018-09-22T11:07:57.345Z,1012.33
2018-09-22T11:08:57.325Z,1012.33
2018-09-22T11:09:57.321Z,1012.34
2018-09-22T11:10:57.302Z,1012.37
2018-09-22T11:11:57.293Z,1012.34
2018-09-22T11:12:57.276Z,1012.36
2018-09-22T11:13:57.265Z,1012.38
2018-09-22T11:14:57.255Z,1012.37
2018-09-22T11:15:57.243Z,1012.35
2018-09-22T11:16:57.227Z,1012.40
2018-09-22T11:17:57.220Z,1012.29
2018-09-22T11:18:57.203Z,1012.28
2018-09-22T11:19:57.245Z,1012.26
2018-09-22T11:20:57.180Z,1012.25
2018-09-22T11:21:57.168Z,1012.29
2018-09-22T11:22:57.159Z,1012.17
2018-09-22T11:23:57.141Z,1012.20
2018-09-22T11:24:57.136Z,1012.16
2018-09-22T11:25:57.119Z,1012.20
2018-09-22T11:26:57.113Z,1012.11
2018-09-22T11:27:57.093Z,1012.08
2018-09-22T11:28:57.080Z,1012.15
2018-09-22T11:29:57.066Z,1012.06
2018-09-22T11:30:57.054Z,1012.17
2018-09-22T11:31:57.045Z,1012.16
2018-09-22T11:32:57.034Z,1012.18
2018-09-22T11:33:57.019Z,1012.22
2018-09-22T11:34:57.016Z,1012.16
2018-09-22T11:35:57.005Z,1012.24
2018-09-22T11:36:56.985Z,1012.27
2018-09-22T11:37:56.970Z,1012.18
2018-09-22T11:38:56.955Z,1012.30
2018-09-22T11:39:56.945Z,1012.17
2018-09-22T11:40:56.931Z,1012.17
2018-09-22T11:41:56.926Z,1012.13
2018-09-22T11:42:56.908Z,1012.08
2018-09-22T11:43:56.891Z,1012.09
2018-09-22T11:44:56.882Z,1012.07
2018-09-22T11:45:56.866Z,1012.08
2018-09-22T11:46:56.866Z,1012.09
2018-09-22T11:47:56.846Z,1012.13
2018-09-22T11:48:56.830Z,1012.25
2018-09-22T11:49:56.817Z,1012.26
2018-09-22T11:50:56.807Z,1012.16
2018-09-22T11:51:56.793Z,1012.16
2018-09-22T11:52:56.786Z,1012.11
2018-09-22T11:53:56.764Z,1012.15
2018-09-22T11:54:56.765Z,1012.12
2018-09-22T11:55:56.741Z,1012.08
2018-09-22T11:56:56.731Z,1012.06
2018-09-22T11:57:56.726Z,1012.12
2018-09-22T11:58:56.705Z,1012.10
2018-09-22T11:59:56.690Z,1012.07
2018-09-22T12:00:56.685Z,1012.14
2018-09-22T12:01:56.720Z,1012.10
2018-09-22T12:02:56.655Z,1012.06
2018-09-22T12:03:56.642Z,1012.08
2018-09-22T12:04:56.634Z,1012.00